createdAt,value
2023-02-18T00:01:41.396Z,21.50
2023-02-18T00:04:11.227Z,21.40
2023-02-18T00:06:40.025Z,21.50
2023-02-18T00:09:09.202Z,21.60
2023-02-18T00:11:38.450Z,21.50
2023-02-18T00:14:09.036Z,21.40
2023-02-18T00:16:37.296Z,21.30
2023-02-18T00:19:07.421Z,21.40
2023-02-18T00:21:37.526Z,21.50
2023-02-18T00:24:06.774Z,21.40
2023-02-18T00:26:35.639Z,21.50
2023-02-18T00:29:04.695Z,21.50
2023-02-18T00:31:35.343Z,21.50
2023-02-18T00:34:04.862Z,21.30
2023-02-18T00:36:33.608Z,21.50
2023-02-18T00:39:05.976Z,21.50
2023-02-18T00:41:36.365Z,21.60
2023-02-18T00:44:05.271Z,21.50
2023-02-18T00:46:34.593Z,21.60
2023-02-18T00:49:02.930Z,21.50
2023-02-18T00:51:31.327Z,21.60
2023-02-18T00:53:59.639Z,21.60
2023-02-18T00:56:29.912Z,21.50
2023-02-18T00:58:58.185Z,21.50
2023-02-18T01:01:27.878Z,21.50
2023-02-18T01:03:56.350Z,21.40
2023-02-18T01:06:24.718Z,21.30
2023-02-18T01:08:53.020Z,21.40
2023-02-18T01:11:21.505Z,21.40
2023-02-18T01:14:16.965Z,21.30
2023-02-18T01:16:45.644Z,21.20
2023-02-18T01:19:13.905Z,21.30
2023-02-18T01:21:42.265Z,21.40
2023-02-18T01:24:10.759Z,21.30
2023-02-18T01:26:39.166Z,21.40
2023-02-18T01:29:07.394Z,21.60
2023-02-18T01:31:37.164Z,21.60
2023-02-18T01:34:05.640Z,21.50
2023-02-18T01:36:33.891Z,21.50
2023-02-18T01:39:02.193Z,21.50
2023-02-18T01:41:30.552Z,21.60
2023-02-18T01:44:14.617Z,21.40
2023-02-18T01:46:44.803Z,21.50
2023-02-18T01:49:16.698Z,21.50
2023-02-18T01:51:49.654Z,21.50
2023-02-18T01:54:23.021Z,21.50
2023-02-18T01:56:55.975Z,21.30
2023-02-18T01:59:28.764Z,21.20
2023-02-18T02:01:59.008Z,21.30
2023-02-18T02:04:27.495Z,21.50
2023-02-18T02:06:56.363Z,21.40
2023-02-18T02:09:27.808Z,21.40
2023-02-18T02:12:29.942Z,21.40
2023-02-18T02:15:31.931Z,21.20
2023-02-18T02:18:27.484Z,21.10
2023-02-18T02:21:34.860Z,21.00
2023-02-18T02:24:38.964Z,21.00
2023-02-18T02:27:16.555Z,20.90
2023-02-18T02:30:19.190Z,20.80
2023-02-18T02:33:30.320Z,20.80
2023-02-18T02:36:04.349Z,20.80
2023-02-18T02:38:38.000Z,20.90
2023-02-18T02:41:18.325Z,20.90
2023-02-18T02:43:57.401Z,21.20
2023-02-18T02:46:31.093Z,21.30
2023-02-18T02:49:06.646Z,21.30
2023-02-18T02:51:42.462Z,21.30
2023-02-18T02:58:43.847Z,21.60
2023-02-18T03:01:32.810Z,21.80
2023-02-18T03:04:44.136Z,21.80
2023-02-18T03:07:30.672Z,21.90
2023-02-18T03:10:19.503Z,21.90
2023-02-18T03:12:54.649Z,21.70
2023-02-18T03:15:29.831Z,21.60
2023-02-18T03:18:03.100Z,21.60
2023-02-18T03:20:37.286Z,21.80
2023-02-18T03:23:12.018Z,21.50
2023-02-18T03:25:41.273Z,21.40
2023-02-18T03:28:13.617Z,21.20
2023-02-18T03:30:44.502Z,21.10
2023-02-18T03:33:16.605Z,21.10
2023-02-18T03:35:46.710Z,20.90
2023-02-18T03:38:24.853Z,20.90
2023-02-18T03:40:53.428Z,20.80
2023-02-18T03:43:22.329Z,20.90
2023-02-18T03:45:50.529Z,20.90
2023-02-18T03:48:18.817Z,20.90
2023-02-18T03:50:46.962Z,20.90
2023-02-18T03:53:16.041Z,20.90
2023-02-18T03:55:46.397Z,20.90
2023-02-18T03:58:14.645Z,21.00
2023-02-18T04:00:42.833Z,21.10
2023-02-18T04:03:11.010Z,21.10
2023-02-18T04:05:39.217Z,21.20
2023-02-18T04:08:07.497Z,21.10
2023-02-18T04:10:35.685Z,21.10
2023-02-18T04:13:05.269Z,21.40
2023-02-18T04:15:34.553Z,21.50
2023-02-18T04:18:02.745Z,21.50
2023-02-18T04:20:31.360Z,21.60
2023-02-18T04:22:59.536Z,21.60
2023-02-18T04:25:27.700Z,21.60
2023-02-18T04:27:55.832Z,21.70
2023-02-18T04:30:26.986Z,21.60
2023-02-18T04:32:55.229Z,21.80
2023-02-18T04:35:23.502Z,21.80
2023-02-18T04:37:51.766Z,21.70
2023-02-18T04:40:20.166Z,21.70
2023-02-18T04:42:48.360Z,21.70
2023-02-18T04:45:16.638Z,21.70
2023-02-18T04:47:46.148Z,21.60
2023-02-18T04:50:14.423Z,21.60
2023-02-18T04:52:42.742Z,21.60
2023-02-18T04:55:11.008Z,21.50
2023-02-18T04:57:39.246Z,21.50
2023-02-18T05:00:11.280Z,21.60
2023-02-18T05:02:39.523Z,21.60
2023-02-18T05:05:09.557Z,21.60
2023-02-18T05:07:38.117Z,21.60
2023-02-18T05:10:07.365Z,21.50
2023-02-18T05:12:35.696Z,21.50
2023-02-18T05:15:04.245Z,21.60
2023-02-18T05:17:32.497Z,21.60
2023-02-18T05:20:00.873Z,21.60
2023-02-18T05:22:30.416Z,21.70
2023-02-18T05:24:58.679Z,21.60
2023-02-18T05:27:26.918Z,21.70
2023-02-18T05:29:55.210Z,21.70
2023-02-18T05:32:23.563Z,21.70
2023-02-18T05:34:51.814Z,21.70
2023-02-18T05:37:20.046Z,21.70
2023-02-18T05:39:49.636Z,21.60
2023-02-18T05:42:17.832Z,21.50
2023-02-18T05:44:46.272Z,21.50
2023-02-18T05:47:14.771Z,21.60
2023-02-18T05:49:44.004Z,21.50
2023-02-18T05:52:13.259Z,21.60
2023-02-18T05:54:41.657Z,21.20
2023-02-18T05:57:11.833Z,21.10
2023-02-18T05:59:40.044Z,21.20
2023-02-18T06:02:08.238Z,21.10
2023-02-18T06:04:36.403Z,21.10
2023-02-18T06:07:04.965Z,21.00
2023-02-18T06:09:33.189Z,21.40
2023-02-18T06:12:01.462Z,21.50
2023-02-18T06:14:31.057Z,21.70
2023-02-18T06:16:59.314Z,21.60
2023-02-18T06:19:27.585Z,21.70
2023-02-18T06:21:56.120Z,21.80
2023-02-18T06:24:24.293Z,21.70
2023-02-18T06:26:52.607Z,21.50
2023-02-18T06:29:20.844Z,21.50
2023-02-18T06:31:50.489Z,21.50
2023-02-18T06:34:18.785Z,21.30
2023-02-18T06:36:47.067Z,21.60
2023-02-18T06:39:15.284Z,21.30
2023-02-18T06:41:43.493Z,21.30
2023-02-18T06:44:12.321Z,21.20
2023-02-18T06:46:40.527Z,21.00
2023-02-18T06:49:10.268Z,20.90
2023-02-18T06:51:38.544Z,20.90
2023-02-18T06:54:07.010Z,20.80
2023-02-18T06:56:35.290Z,20.90
2023-02-18T06:59:03.531Z,20.80
2023-02-18T07:01:31.766Z,20.80
2023-02-18T07:04:00.028Z,20.70
2023-02-18T07:06:29.636Z,20.80
2023-02-18T07:08:57.983Z,20.90
2023-02-18T07:11:26.152Z,20.90
2023-02-18T07:13:54.313Z,21.00
2023-02-18T07:16:22.646Z,21.00
2023-02-18T07:18:50.851Z,20.90
2023-02-18T07:21:19.067Z,20.90
2023-02-18T07:23:48.630Z,21.00
2023-02-18T07:26:17.019Z,21.10
2023-02-18T07:28:45.595Z,21.00
2023-02-18T07:31:13.949Z,21.20
2023-02-18T07:33:42.235Z,21.30
2023-02-18T07:36:11.144Z,21.20
2023-02-18T07:38:40.842Z,21.10
2023-02-18T07:41:22.774Z,21.30
2023-02-18T07:43:51.486Z,21.20
2023-02-18T07:46:21.017Z,21.30
2023-02-18T07:48:49.305Z,21.30
2023-02-18T07:51:17.609Z,21.40
2023-02-18T07:53:45.890Z,21.50
2023-02-18T07:56:15.672Z,21.30
2023-02-18T07:58:43.889Z,21.40
2023-02-18T08:01:15.199Z,21.20
2023-02-18T08:03:44.014Z,21.10
2023-02-18T08:06:21.986Z,21.10
2023-02-18T08:08:50.188Z,21.00
2023-02-18T08:11:19.970Z,21.00
2023-02-18T08:13:48.473Z,21.20
2023-02-18T08:16:16.950Z,21.20
2023-02-18T08:18:45.490Z,21.20
2023-02-18T08:21:13.723Z,21.20
2023-02-18T08:23:42.089Z,21.20
2023-02-18T08:26:11.080Z,21.20
2023-02-18T08:28:45.633Z,21.20
2023-02-18T08:31:19.252Z,21.30
2023-02-18T08:33:47.697Z,21.30
2023-02-18T08:36:16.311Z,21.20
2023-02-18T08:38:44.612Z,21.10
2023-02-18T08:41:14.450Z,21.10
2023-02-18T08:43:44.212Z,21.20
2023-02-18T08:46:16.195Z,21.20
2023-02-18T08:48:53.566Z,21.10
2023-02-18T08:51:23.829Z,21.10
2023-02-18T08:53:52.072Z,21.20
2023-02-18T08:56:20.214Z,21.10
2023-02-18T08:58:49.810Z,21.30
2023-02-18T09:01:18.130Z,21.50
2023-02-18T09:03:46.352Z,21.10
2023-02-18T09:06:14.619Z,21.10
2023-02-18T09:08:42.839Z,21.10
2023-02-18T09:11:12.538Z,21.30
2023-02-18T09:13:41.127Z,21.30
2023-02-18T09:16:14.115Z,21.20
2023-02-18T09:18:42.945Z,21.30
2023-02-18T09:21:13.668Z,21.40
2023-02-18T09:23:42.023Z,21.40
2023-02-18T09:26:14.243Z,21.50
2023-02-18T09:28:42.612Z,21.60
2023-02-18T09:31:14.502Z,21.50
2023-02-18T09:33:46.304Z,21.50
2023-02-18T09:36:14.923Z,21.40
2023-02-18T09:38:43.295Z,21.50
2023-02-18T09:41:21.265Z,21.40
2023-02-18T09:43:52.771Z,21.30
2023-02-18T09:46:26.008Z,21.30
2023-02-18T09:48:54.689Z,21.20
2023-02-18T09:51:23.213Z,21.40
2023-02-18T09:53:51.573Z,21.50
2023-02-18T09:56:25.011Z,21.50
2023-02-18T09:58:54.180Z,21.60
2023-02-18T10:01:29.860Z,21.60
2023-02-18T10:04:01.774Z,21.50
2023-02-18T10:06:33.465Z,21.50
2023-02-18T10:09:04.366Z,21.50
2023-02-18T10:11:36.273Z,21.60
2023-02-18T10:14:10.523Z,21.60
2023-02-18T10:16:40.226Z,21.60
2023-02-18T10:19:23.760Z,21.60
2023-02-18T10:21:53.820Z,21.20
2023-02-18T10:24:30.277Z,21.10
2023-02-18T10:26:59.360Z,21.10
2023-02-18T10:29:29.352Z,21.20
2023-02-18T10:32:05.899Z,21.20
2023-02-18T10:34:42.745Z,21.20
2023-02-18T10:37:29.174Z,21.10
2023-02-18T10:40:07.407Z,21.20
2023-02-18T10:42:44.556Z,21.20
2023-02-18T10:45:24.705Z,21.20
2023-02-18T10:48:06.213Z,21.30
2023-02-18T10:50:39.419Z,21.20
2023-02-18T10:53:14.761Z,21.30
2023-02-18T10:55:45.363Z,21.20
2023-02-18T10:58:28.931Z,21.10
2023-02-18T11:00:57.808Z,21.10
2023-02-18T11:03:38.254Z,21.20
2023-02-18T11:06:16.102Z,21.30
2023-02-18T11:08:46.911Z,21.30
2023-02-18T11:11:18.747Z,21.10
2023-02-18T11:13:55.128Z,21.10
2023-02-18T11:16:23.865Z,21.10
2023-02-18T11:18:53.547Z,21.20
2023-02-18T11:21:27.717Z,21.30
2023-02-18T11:23:57.608Z,21.20
2023-02-18T11:26:31.450Z,21.30
2023-02-18T11:29:04.026Z,21.20
2023-02-18T11:31:44.248Z,21.20
2023-02-18T11:34:19.648Z,21.30
2023-02-18T11:36:49.255Z,21.20
2023-02-18T11:39:24.377Z,21.50
2023-02-18T11:41:57.502Z,21.50
2023-02-18T11:44:30.526Z,21.60
2023-02-18T11:47:01.869Z,21.80
2023-02-18T11:49:33.997Z,22.00
2023-02-18T11:52:15.465Z,21.80
2023-02-18T11:54:43.917Z,21.70
2023-02-18T11:57:14.780Z,21.90
2023-02-18T11:59:45.171Z,21.90
2023-02-18T12:02:29.046Z,21.90
2023-02-18T12:05:03.769Z,21.70
2023-02-18T12:07:40.929Z,21.70
2023-02-18T12:10:16.098Z,21.70
2023-02-18T12:12:48.685Z,21.60
2023-02-18T12:15:23.047Z,21.60
2023-02-18T12:18:03.696Z,21.60
2023-02-18T12:20:55.032Z,21.60
2023-02-18T12:23:34.420Z,21.50
2023-02-18T12:26:08.050Z,21.50
2023-02-18T12:28:49.862Z,21.50
2023-02-18T12:31:32.146Z,21.60
2023-02-18T12:34:14.979Z,21.60
2023-02-18T12:36:58.081Z,21.60
2023-02-18T12:39:40.041Z,21.50
2023-02-18T12:42:24.652Z,21.50
2023-02-18T12:45:09.676Z,21.70
2023-02-18T12:47:53.674Z,21.80
2023-02-18T12:50:35.522Z,21.80
2023-02-18T12:53:24.054Z,21.70
2023-02-18T12:56:01.077Z,21.80
2023-02-18T12:58:42.652Z,22.10
2023-02-18T13:01:24.881Z,22.00
2023-02-18T13:04:26.834Z,21.90
2023-02-18T13:07:19.678Z,21.90
2023-02-18T13:10:02.357Z,21.80
2023-02-18T13:12:38.942Z,21.80
2023-02-18T13:15:18.312Z,21.90
2023-02-18T13:17:48.543Z,21.80
2023-02-18T13:20:22.097Z,21.80
2023-02-18T13:22:53.200Z,22.00
2023-02-18T13:25:23.845Z,22.10
2023-02-18T13:28:02.418Z,22.10
2023-02-18T13:30:38.753Z,22.00
2023-02-18T13:33:16.699Z,21.90
2023-02-18T13:35:50.189Z,21.90
2023-02-18T13:38:58.156Z,21.70
2023-02-18T13:41:28.709Z,21.70
2023-02-18T13:43:56.948Z,21.60
2023-02-18T13:46:25.687Z,21.60
2023-02-18T13:48:56.624Z,21.50
2023-02-18T13:51:33.909Z,21.60
2023-02-18T13:54:06.301Z,21.50
2023-02-18T13:56:37.166Z,21.40
2023-02-18T13:59:12.916Z,21.30
2023-02-18T14:01:44.723Z,21.40
2023-02-18T14:04:35.561Z,21.40
2023-02-18T14:07:30.385Z,21.30
2023-02-18T14:10:00.049Z,21.50
2023-02-18T14:12:38.601Z,21.60
2023-02-18T14:15:40.518Z,21.50
2023-02-18T14:18:24.003Z,21.50
2023-02-18T14:20:52.754Z,21.50
2023-02-18T14:23:40.433Z,21.50
2023-02-18T14:26:19.228Z,21.60
2023-02-18T14:28:57.363Z,21.40
2023-02-18T14:31:48.474Z,21.30
2023-02-18T14:34:42.841Z,21.20
2023-02-18T14:37:51.041Z,21.20
2023-02-18T14:40:29.442Z,21.40
2023-02-18T14:43:05.926Z,21.40
2023-02-18T14:45:51.387Z,21.40
2023-02-18T14:48:39.911Z,21.30
2023-02-18T14:51:08.680Z,21.40
2023-02-18T14:53:43.388Z,21.40
2023-02-18T14:56:15.869Z,21.50
2023-02-18T14:58:47.181Z,21.60
2023-02-18T15:01:21.040Z,21.50
2023-02-18T15:03:51.293Z,21.70
2023-02-18T15:06:29.486Z,21.90
2023-02-18T15:08:58.042Z,21.90
2023-02-18T15:11:34.442Z,22.10
2023-02-18T15:14:03.654Z,22.00
2023-02-18T15:16:35.000Z,21.90
2023-02-18T15:19:06.118Z,21.80
2023-02-18T15:21:38.303Z,21.80
2023-02-18T15:24:09.513Z,21.80
2023-02-18T15:26:44.035Z,21.80
2023-02-18T15:29:19.598Z,21.60
2023-02-18T15:31:50.215Z,21.40
2023-02-18T15:34:33.943Z,21.30
2023-02-18T15:37:03.409Z,21.20
2023-02-18T15:39:33.604Z,21.20
2023-02-18T15:42:07.600Z,21.40
2023-02-18T15:44:37.886Z,21.50
2023-02-18T15:47:10.453Z,21.50
2023-02-18T15:49:40.158Z,21.50
2023-02-18T15:52:09.983Z,21.60
2023-02-18T15:54:42.179Z,21.50
2023-02-18T15:57:16.631Z,21.40
2023-02-18T15:59:47.457Z,21.30
2023-02-18T16:02:22.883Z,21.30
2023-02-18T16:04:55.796Z,21.30
2023-02-18T16:07:28.346Z,21.30
2023-02-18T16:10:20.755Z,21.30
2023-02-18T16:12:52.828Z,21.20
2023-02-18T16:15:26.790Z,21.20
2023-02-18T16:17:58.977Z,21.20
2023-02-18T16:20:31.879Z,21.20
2023-02-18T16:23:05.140Z,21.20
2023-02-18T16:25:43.441Z,21.20
2023-02-18T16:28:16.836Z,21.20
2023-02-18T16:30:46.539Z,21.20
2023-02-18T16:33:16.725Z,21.20
2023-02-18T16:35:50.716Z,21.10
2023-02-18T16:38:21.572Z,21.10
2023-02-18T16:40:50.760Z,21.10
2023-02-18T16:43:20.474Z,21.10
2023-02-18T16:45:51.271Z,21.20
2023-02-18T16:48:25.669Z,21.10
2023-02-18T16:50:54.701Z,21.10
2023-02-18T16:53:23.744Z,21.10
2023-02-18T16:55:52.475Z,21.10
2023-02-18T16:58:20.879Z,21.10
2023-02-18T17:00:52.596Z,21.20
2023-02-18T17:03:22.848Z,21.10
2023-02-18T17:05:51.238Z,21.10
2023-02-18T17:08:23.084Z,21.10
2023-02-18T17:10:53.465Z,21.10
2023-02-18T17:13:23.160Z,21.10
2023-02-18T17:15:53.690Z,21.10
2023-02-18T17:18:23.850Z,21.10
2023-02-18T17:20:53.457Z,21.10
2023-02-18T17:23:23.593Z,21.10
2023-02-18T17:25:53.106Z,21.20
2023-02-18T17:28:21.456Z,21.50
2023-02-18T17:30:56.382Z,21.80
2023-02-18T17:33:26.608Z,22.00
2023-02-18T17:35:55.135Z,22.10
2023-02-18T17:38:23.600Z,22.20
2023-02-18T17:40:51.994Z,22.10
2023-02-18T17:43:20.380Z,22.10
2023-02-18T17:45:52.037Z,22.00
2023-02-18T17:48:20.599Z,21.90
2023-02-18T17:50:50.203Z,21.50
2023-02-18T17:53:19.198Z,21.20
2023-02-18T17:55:48.572Z,21.10
2023-02-18T17:58:17.585Z,21.00
2023-02-18T18:00:47.957Z,21.00
2023-02-18T18:03:16.650Z,21.00
2023-02-18T18:05:49.044Z,21.00
2023-02-18T18:08:19.554Z,21.00
2023-02-18T18:10:50.465Z,21.10
2023-02-18T18:13:22.351Z,21.20
2023-02-18T18:15:51.625Z,21.10
2023-02-18T18:18:20.691Z,21.10
2023-02-18T18:20:51.642Z,21.10
2023-02-18T18:23:22.540Z,21.00
2023-02-18T18:25:53.156Z,20.90
2023-02-18T18:28:21.563Z,20.90
2023-02-18T18:30:52.355Z,20.90
2023-02-18T18:33:22.587Z,20.90
2023-02-18T18:35:52.942Z,20.90
2023-02-18T18:38:23.854Z,20.90
2023-02-18T18:40:52.752Z,21.00
2023-02-18T18:43:22.811Z,20.90
2023-02-18T18:45:51.849Z,21.00
2023-02-18T18:48:21.135Z,20.90
2023-02-18T18:50:50.140Z,20.90
2023-02-18T18:53:20.679Z,20.90
2023-02-18T18:55:51.584Z,20.90
2023-02-18T18:58:24.216Z,20.90
2023-02-18T19:00:54.859Z,20.90
2023-02-18T19:03:25.015Z,20.90
2023-02-18T19:05:53.489Z,20.90
2023-02-18T19:08:21.965Z,20.90
2023-02-18T19:10:54.110Z,20.90
2023-02-18T19:13:23.829Z,21.00
2023-02-18T19:15:54.520Z,21.00
2023-02-18T19:18:22.741Z,21.00
2023-02-18T19:20:50.878Z,21.00
2023-02-18T19:23:19.267Z,21.00
2023-02-18T19:25:47.512Z,20.90
2023-02-18T19:28:17.980Z,21.00
2023-02-18T19:30:47.398Z,21.00
2023-02-18T19:33:16.580Z,20.90
2023-02-18T19:35:45.187Z,21.00
2023-02-18T19:38:15.393Z,21.00
2023-02-18T19:40:44.633Z,21.00
2023-02-18T19:43:13.538Z,21.00
2023-02-18T19:45:44.021Z,21.00
2023-02-18T19:48:13.098Z,21.00
2023-02-18T19:50:42.682Z,21.00
2023-02-18T19:53:11.741Z,21.00
2023-02-18T19:55:40.359Z,21.00
2023-02-18T19:58:08.608Z,21.00
2023-02-18T20:00:36.950Z,21.00
2023-02-18T20:03:06.544Z,21.00
2023-02-18T20:05:38.429Z,21.00
2023-02-18T20:08:06.642Z,21.00
2023-02-18T20:10:35.104Z,20.90
2023-02-18T20:13:04.547Z,20.90
2023-02-18T20:15:32.830Z,20.90
2023-02-18T20:18:01.175Z,20.90
2023-02-18T20:20:30.925Z,20.90
2023-02-18T20:22:59.169Z,20.90
2023-02-18T20:25:28.282Z,20.90
2023-02-18T20:28:01.314Z,20.90
2023-02-18T20:30:30.439Z,20.90
2023-02-18T20:32:58.725Z,20.90
2023-02-18T20:35:27.058Z,20.90
2023-02-18T20:37:56.718Z,20.90
2023-02-18T20:40:25.047Z,20.90
2023-02-18T20:42:53.323Z,20.90
2023-02-18T20:45:21.625Z,20.90
2023-02-18T20:47:49.885Z,20.90
2023-02-18T20:50:18.242Z,20.90
2023-02-18T20:52:46.621Z,20.90
2023-02-18T20:55:16.231Z,20.80
2023-02-18T20:57:44.470Z,20.80
2023-02-18T21:00:13.792Z,20.80
2023-02-18T21:02:42.027Z,20.80
2023-02-18T21:05:10.282Z,20.80
2023-02-18T21:07:38.539Z,20.80
2023-02-18T21:10:07.376Z,20.80
2023-02-18T21:12:36.982Z,20.80
2023-02-18T21:15:05.829Z,20.80
2023-02-18T21:17:34.126Z,20.80
2023-02-18T21:20:02.405Z,20.80
2023-02-18T21:22:30.663Z,20.80
2023-02-18T21:25:00.394Z,20.70
2023-02-18T21:27:28.676Z,20.70
2023-02-18T21:30:00.117Z,20.70
2023-02-18T21:32:28.538Z,20.70
2023-02-18T21:34:56.816Z,20.70
2023-02-18T21:37:25.058Z,20.70
2023-02-18T21:39:53.364Z,20.70
2023-02-18T21:42:21.588Z,20.80
2023-02-18T21:44:49.916Z,20.80
2023-02-18T21:47:19.474Z,20.70
2023-02-18T21:49:47.716Z,20.70
2023-02-18T21:52:15.919Z,20.70
2023-02-18T21:54:45.515Z,20.70
2023-02-18T21:57:16.278Z,20.80
2023-02-18T21:59:45.203Z,20.70
2023-02-18T22:02:17.488Z,20.70
2023-02-18T22:04:48.112Z,20.70
2023-02-18T22:07:17.351Z,20.70
2023-02-18T22:09:48.272Z,20.70
2023-02-18T22:12:17.304Z,20.70
2023-02-18T22:14:45.922Z,20.70
2023-02-18T22:17:15.956Z,20.70
2023-02-18T22:19:44.340Z,20.70
2023-02-18T22:22:14.939Z,20.70
2023-02-18T22:24:43.180Z,20.70
2023-02-18T22:27:11.840Z,20.70
2023-02-18T22:29:40.212Z,20.70
2023-02-18T22:32:08.599Z,20.70
2023-02-18T22:34:37.048Z,20.70
2023-02-18T22:37:05.244Z,20.70
2023-02-18T22:39:34.969Z,20.70
2023-02-18T22:42:03.207Z,20.70
2023-02-18T22:44:31.448Z,20.70
2023-02-18T22:46:59.745Z,20.70
2023-02-18T22:49:27.948Z,20.70
2023-02-18T22:51:56.271Z,20.70
2023-02-18T22:54:24.494Z,20.70
2023-02-18T22:56:54.800Z,20.70
2023-02-18T22:59:23.098Z,20.70
2023-02-18T23:01:52.890Z,20.70
2023-02-18T23:04:22.273Z,20.70
2023-02-18T23:06:51.511Z,20.70
2023-02-18T23:09:21.685Z,20.70
2023-02-18T23:11:56.345Z,20.70
2023-02-18T23:14:25.358Z,20.70
2023-02-18T23:17:17.783Z,20.70
2023-02-18T23:19:47.867Z,20.70
2023-02-18T23:22:17.660Z,20.70
2023-02-18T23:24:49.500Z,20.70
2023-02-18T23:27:19.349Z,20.70
2023-02-18T23:29:48.331Z,20.70
2023-02-18T23:32:16.745Z,20.70
2023-02-18T23:34:45.163Z,20.70
2023-02-18T23:37:13.700Z,20.70
2023-02-18T23:39:41.938Z,20.70
2023-02-18T23:42:10.210Z,20.70
2023-02-18T23:44:39.891Z,20.70
2023-02-18T23:47:08.792Z,20.70
2023-02-18T23:49:37.063Z,20.70
2023-02-18T23:52:05.764Z,20.70
2023-02-18T23:54:34.232Z,20.70
2023-02-18T23:57:02.545Z,20.70
2023-02-18T23:59:30.744Z,20.70
